Time;durP1;ratioP1;P1;durP2;ratioP2;P2;SDS_P1;SDS_P2;PMS_P1;PMS_P2;Temp;Humidity;BMP_temperature;BMP_pressure;BME280_temperature;BME280_humidity;BME280_pressure;Samples;Min_cycle;Max_cycle;Signal;HPM_P1;HPM_P2
2021/01/02 00:04:45;;;;;;;26.87;18.07;;;;;2.40;100795.00;;;;10404408;28;20195;-76
2021/01/02 00:09:54;;;;;;;31.50;18.97;;;;;2.40;100793.00;;;;10411365;28;20233;-76
2021/01/02 00:15:05;;;;;;;27.20;17.20;;;;;2.40;100798.00;;;;10421015;28;20248;-76
2021/01/02 00:20:13;;;;;;;31.40;17.70;;;;;2.40;100803.00;;;;10425216;28;20203;-76
2021/01/02 00:25:16;;;;;;;30.00;18.40;;;;;2.40;100801.00;;;;10419766;28;20213;-76
2021/01/02 00:30:58;;;;;;;25.63;17.63;;;;;2.40;100798.00;;;;10396934;28;20211;-76
2021/01/02 00:36:09;;;;;;;30.40;18.60;;;;;2.40;100797.00;;;;10364519;28;20605;-76
2021/01/02 00:41:12;;;;;;;26.87;18.10;;;;;2.30;100796.00;;;;10436375;28;20187;-76
2021/01/02 00:46:13;;;;;;;27.63;17.43;;;;;2.30;100798.00;;;;10425878;28;20218;-76
2021/01/02 00:51:16;;;;;;;28.87;18.47;;;;;2.30;100792.00;;;;10438145;28;20212;-76
2021/01/02 00:56:34;;;;;;;29.03;17.10;;;;;2.30;100799.00;;;;10431514;28;20197;-76
2021/01/02 01:01:46;;;;;;;28.23;17.77;;;;;2.30;100795.00;;;;10454055;28;20568;-76
2021/01/02 01:06:55;;;;;;;28.27;17.30;;;;;2.30;100795.00;;;;10411289;28;20200;-76
2021/01/02 01:11:57;;;;;;;29.50;17.17;;;;;2.30;100800.00;;;;10440699;28;20198;-76
2021/01/02 01:17:02;;;;;;;29.40;18.60;;;;;2.30;100797.00;;;;10454628;28;20194;-76
2021/01/02 01:22:09;;;;;;;28.47;17.17;;;;;2.30;100807.00;;;;10418470;28;20261;-76
2021/01/02 01:27:48;;;;;;;25.83;16.10;;;;;2.20;100806.00;;;;10408660;28;20241;-76
2021/01/02 01:33:03;;;;;;;25.63;17.00;;;;;2.10;100805.00;;;;10442073;28;20265;-76
2021/01/02 01:38:06;;;;;;;29.80;17.90;;;;;2.10;100807.00;;;;10465795;28;20198;-76
2021/01/02 01:43:20;;;;;;;32.87;18.30;;;;;2.10;100811.00;;;;10450610;28;20305;-76
2021/01/02 01:48:32;;;;;;;29.80;17.87;;;;;2.10;100822.00;;;;10450094;28;20253;-76
2021/01/02 01:54:00;;;;;;;27.93;16.57;;;;;2.00;100818.00;;;;10446349;28;20258;-76
2021/01/02 01:59:15;;;;;;;30.87;18.27;;;;;2.00;100816.00;;;;10425918;28;20558;-76
2021/01/02 02:05:01;;;;;;;31.63;18.50;;;;;2.00;100809.00;;;;10392821;28;20621;-76
2021/01/02 02:10:04;;;;;;;35.90;17.87;;;;;2.00;100818.00;;;;10390141;28;20210;-76
2021/01/02 02:15:08;;;;;;;28.63;17.40;;;;;2.00;100825.00;;;;10408331;28;20199;-76
2021/01/02 02:20:23;;;;;;;28.10;16.13;;;;;2.00;100822.00;;;;10403721;28;20724;-76
2021/01/02 02:25:25;;;;;;;28.37;16.10;;;;;2.00;100826.00;;;;10394512;28;20187;-76
2021/01/02 02:30:34;;;;;;;27.73;17.03;;;;;2.10;100827.00;;;;10459146;28;20206;-76
2021/01/02 02:35:36;;;;;;;32.27;16.70;;;;;2.10;100830.00;;;;10442494;28;20293;-76
2021/01/02 02:40:37;;;;;;;30.20;16.77;;;;;2.10;100822.00;;;;10425942;28;20241;-76
2021/01/02 02:45:39;;;;;;;30.17;16.90;;;;;2.20;100823.00;;;;10437180;28;20222;-76
2021/01/02 02:50:44;;;;;;;30.80;16.07;;;;;2.20;100818.00;;;;10457607;28;20256;-76
2021/01/02 02:55:45;;;;;;;25.40;16.00;;;;;2.20;100822.00;;;;10425761;28;20206;-76
2021/01/02 03:00:47;;;;;;;28.07;15.50;;;;;2.20;100818.00;;;;10420001;28;20199;-76
2021/01/02 03:05:52;;;;;;;25.60;14.33;;;;;2.20;100818.00;;;;10400312;28;20500;-76
2021/01/02 03:10:54;;;;;;;28.43;16.60;;;;;2.20;100814.00;;;;10416946;28;20214;-76
2021/01/02 03:15:55;;;;;;;27.77;15.10;;;;;2.20;100814.00;;;;10427509;28;20252;-76
2021/01/02 03:20:56;;;;;;;21.90;13.93;;;;;2.20;100819.00;;;;10458172;28;20190;-76
2021/01/02 03:26:04;;;;;;;23.17;13.40;;;;;2.20;100799.00;;;;10445196;28;20241;-76
2021/01/02 03:31:05;;;;;;;28.27;15.80;;;;;2.10;100810.00;;;;10439769;28;20214;-77
2021/01/02 03:36:07;;;;;;;27.40;15.03;;;;;1.90;100809.00;;;;10399972;28;20195;-77
2021/01/02 03:41:08;;;;;;;25.37;14.33;;;;;1.90;100807.00;;;;10399388;28;20619;-76
2021/01/02 03:46:09;;;;;;;25.83;14.73;;;;;1.80;100809.00;;;;10446019;28;20222;-77
2021/01/02 03:51:11;;;;;;;29.30;16.63;;;;;1.80;100795.00;;;;10396167;28;20214;-76
2021/01/02 03:56:12;;;;;;;31.23;15.97;;;;;1.80;100806.00;;;;10441470;28;20527;-76
2021/01/02 04:01:13;;;;;;;32.00;16.30;;;;;1.80;100792.00;;;;10438998;28;20242;-76
2021/01/02 04:06:23;;;;;;;30.93;15.97;;;;;1.90;100798.00;;;;10414234;28;20666;-76
2021/01/02 04:11:25;;;;;;;34.43;16.73;;;;;1.90;100799.00;;;;10370856;28;20198;-76
2021/01/02 04:16:31;;;;;;;30.40;16.57;;;;;1.90;100797.00;;;;10406968;28;20527;-76
2021/01/02 04:21:34;;;;;;;29.60;16.17;;;;;1.90;100787.00;;;;10397550;28;20314;-76
2021/01/02 04:26:35;;;;;;;33.70;17.47;;;;;2.00;100800.00;;;;10443886;28;20186;-76
2021/01/02 04:31:40;;;;;;;32.20;17.67;;;;;2.00;100794.00;;;;10438553;28;20214;-76
2021/01/02 04:36:41;;;;;;;35.80;17.20;;;;;2.00;100790.00;;;;10440293;28;20191;-76
2021/01/02 04:41:42;;;;;;;34.37;18.00;;;;;2.00;100797.00;;;;10400537;28;20213;-76
2021/01/02 04:46:45;;;;;;;32.70;17.93;;;;;2.00;100804.00;;;;10437815;28;20229;-76
2021/01/02 04:51:46;;;;;;;38.47;18.40;;;;;2.10;100803.00;;;;10453432;28;20261;-76
2021/01/02 04:56:47;;;;;;;33.77;19.63;;;;;2.10;100806.00;;;;10421457;28;20648;-76
2021/01/02 05:01:50;;;;;;;33.90;18.17;;;;;2.10;100804.00;;;;10436802;28;20197;-76
2021/01/02 05:06:51;;;;;;;38.93;19.77;;;;;2.10;100800.00;;;;10453344;28;20689;-76
2021/01/02 05:11:53;;;;;;;38.67;19.93;;;;;2.20;100805.00;;;;10410388;28;20598;-76
2021/01/02 05:16:54;;;;;;;40.73;21.83;;;;;2.20;100808.00;;;;10432161;28;20198;-76
2021/01/02 05:21:55;;;;;;;39.07;20.47;;;;;2.30;100814.00;;;;10437090;28;20190;-76
2021/01/02 05:27:01;;;;;;;41.57;20.63;;;;;2.40;100814.00;;;;10451702;28;20191;-76
2021/01/02 05:32:03;;;;;;;46.90;21.17;;;;;2.40;100817.00;;;;10428429;28;20741;-76
2021/01/02 05:37:09;;;;;;;45.73;22.13;;;;;2.50;100828.00;;;;10395932;28;20199;-76
2021/01/02 05:42:10;;;;;;;47.07;22.03;;;;;2.50;100831.00;;;;10412146;28;20586;-76
2021/01/02 05:47:19;;;;;;;41.13;21.87;;;;;2.50;100826.00;;;;10392229;28;20577;-76
2021/01/02 05:52:20;;;;;;;40.20;20.33;;;;;2.50;100818.00;;;;10404937;28;20206;-76
2021/01/02 05:57:27;;;;;;;43.43;19.93;;;;;2.60;100819.00;;;;10389503;28;20684;-76
2021/01/02 06:02:30;;;;;;;45.07;20.80;;;;;2.60;100816.00;;;;10418736;28;20248;-76
2021/01/02 06:07:33;;;;;;;32.57;18.40;;;;;2.60;100815.00;;;;10401835;28;20241;-76
2021/01/02 06:12:38;;;;;;;38.20;20.03;;;;;2.60;100821.00;;;;10414098;28;20222;-76
2021/01/02 06:17:41;;;;;;;38.27;21.97;;;;;2.60;100814.00;;;;10385454;28;20222;-76
2021/01/02 06:22:44;;;;;;;37.47;19.97;;;;;2.60;100815.00;;;;10434733;28;20190;-76
2021/01/02 06:27:45;;;;;;;42.13;22.50;;;;;2.50;100818.00;;;;10425427;28;20256;-76
2021/01/02 06:32:47;;;;;;;45.30;24.00;;;;;2.50;100814.00;;;;10409784;28;20704;-76
2021/01/02 06:37:52;;;;;;;39.43;21.10;;;;;2.40;100821.00;;;;10425758;28;20209;-76
2021/01/02 06:42:56;;;;;;;37.43;21.00;;;;;2.40;100817.00;;;;10433916;28;20272;-76
2021/01/02 06:47:58;;;;;;;35.00;20.37;;;;;2.40;100820.00;;;;10457564;28;20708;-76
2021/01/02 06:53:22;;;;;;;39.63;21.43;;;;;2.30;100823.00;;;;10442136;28;20217;-76
2021/01/02 06:58:24;;;;;;;41.37;24.47;;;;;2.30;100832.00;;;;10405006;28;20203;-76
2021/01/02 07:03:47;;;;;;;39.37;21.73;;;;;2.30;100844.00;;;;10383892;28;20194;-76
2021/01/02 07:08:57;;;;;;;37.77;20.73;;;;;2.30;100854.00;;;;10389202;28;20214;-76
2021/01/02 07:19:34;;;;;;;38.63;21.30;;;;;2.30;100855.00;;;;10416556;28;20210;-76
2021/01/02 07:24:37;;;;;;;38.10;21.60;;;;;2.40;100853.00;;;;10416889;28;20195;-76
2021/01/02 07:29:52;;;;;;;42.07;23.23;;;;;2.40;100849.00;;;;10415608;28;20207;-76
2021/01/02 07:35:03;;;;;;;51.10;27.63;;;;;2.40;100862.00;;;;10414542;28;20805;-76
2021/01/02 07:40:08;;;;;;;60.37;31.13;;;;;2.50;100868.00;;;;10382185;28;20268;-76
2021/01/02 07:45:17;;;;;;;51.07;28.80;;;;;2.50;100870.00;;;;10404016;28;20366;-76
2021/01/02 07:50:20;;;;;;;55.93;31.50;;;;;2.50;100864.00;;;;10402032;28;20261;-76
2021/01/02 07:55:31;;;;;;;43.03;24.07;;;;;2.60;100868.00;;;;10382153;28;20224;-76
2021/01/02 08:00:32;;;;;;;46.27;25.90;;;;;2.60;100867.00;;;;10427000;28;20257;-76
2021/01/02 08:05:33;;;;;;;40.77;22.93;;;;;2.60;100878.00;;;;10438760;28;20190;-76
2021/01/02 08:10:35;;;;;;;45.90;24.57;;;;;2.70;100893.00;;;;10434735;28;20199;-76
2021/01/02 08:15:37;;;;;;;48.30;25.63;;;;;2.70;100891.00;;;;10441214;28;20225;-76
2021/01/02 08:20:38;;;;;;;52.93;27.03;;;;;2.80;100900.00;;;;10438335;28;20190;-76
2021/01/02 08:25:44;;;;;;;48.27;26.13;;;;;2.90;100893.00;;;;10430425;28;20665;-76
2021/01/02 08:30:46;;;;;;;44.47;25.53;;;;;2.90;100909.00;;;;10439081;28;20213;-76
2021/01/02 08:35:47;;;;;;;55.77;26.33;;;;;2.90;100911.00;;;;10386791;28;20222;-76
2021/01/02 08:40:50;;;;;;;42.27;24.43;;;;;2.90;100897.00;;;;10432023;28;20550;-76
2021/01/02 08:46:02;;;;;;;40.70;21.57;;;;;2.80;100897.00;;;;10424491;28;20298;-76
2021/01/02 08:51:04;;;;;;;38.93;22.83;;;;;2.80;100900.00;;;;10421513;28;20240;-76
2021/01/02 08:56:26;;;;;;;46.67;24.73;;;;;2.90;100907.00;;;;10444893;28;20644;-76
2021/01/02 09:01:31;;;;;;;43.23;23.10;;;;;2.90;100910.00;;;;10440140;28;20217;-76
2021/01/02 09:06:32;;;;;;;43.63;24.27;;;;;3.00;100914.00;;;;10458118;28;20263;-76
2021/01/02 09:11:47;;;;;;;47.77;25.60;;;;;3.20;100918.00;;;;10449392;28;20233;-76
2021/01/02 09:17:07;;;;;;;44.13;23.07;;;;;3.50;100918.00;;;;10404534;28;20201;-76
2021/01/02 09:22:17;;;;;;;42.47;24.53;;;;;3.80;100918.00;;;;10441103;28;20190;-76
2021/01/02 09:27:19;;;;;;;41.40;23.67;;;;;4.10;100924.00;;;;10415186;28;20245;-76
2021/01/02 09:32:20;;;;;;;39.50;23.37;;;;;4.20;100923.00;;;;10436057;28;20604;-76
2021/01/02 09:37:21;;;;;;;44.60;23.40;;;;;4.30;100919.00;;;;10429086;28;20241;-76
2021/01/02 09:42:33;;;;;;;35.00;21.53;;;;;4.30;100928.00;;;;10432227;28;20218;-76
2021/01/02 09:47:35;;;;;;;40.00;20.63;;;;;4.20;100935.00;;;;10417002;28;20989;-76
2021/01/02 09:52:36;;;;;;;36.30;23.23;;;;;4.10;100935.00;;;;10420383;28;20297;-76
2021/01/02 09:57:38;;;;;;;36.73;20.53;;;;;4.10;100940.00;;;;10403346;28;20989;-75
2021/01/02 10:02:40;;;;;;;34.90;21.30;;;;;4.20;100948.00;;;;10420274;28;20194;-76
2021/01/02 10:07:41;;;;;;;40.63;21.20;;;;;4.20;100949.00;;;;10384905;28;20194;-76
2021/01/02 10:12:43;;;;;;;35.10;19.13;;;;;4.30;100951.00;;;;10420716;28;20689;-76
2021/01/02 10:17:45;;;;;;;46.10;22.83;;;;;4.40;100939.00;;;;10414414;28;20206;-76
2021/01/02 10:22:46;;;;;;;36.63;21.13;;;;;4.50;100944.00;;;;10438306;28;20206;-75
2021/01/02 10:27:48;;;;;;;38.10;20.13;;;;;4.60;100937.00;;;;10427111;28;20210;-76
2021/01/02 10:32:49;;;;;;;36.20;20.87;;;;;4.60;100946.00;;;;10448608;28;20206;-75
2021/01/02 10:37:50;;;;;;;37.97;21.20;;;;;4.70;100941.00;;;;10409753;28;20202;-76
2021/01/02 10:42:51;;;;;;;35.60;20.77;;;;;4.80;100934.00;;;;10390707;28;20211;-76
2021/01/02 10:47:53;;;;;;;43.23;22.77;;;;;5.10;100932.00;;;;10386206;28;20191;-76
2021/01/02 10:52:54;;;;;;;37.47;21.17;;;;;5.10;100926.00;;;;10433006;28;20254;-76
2021/01/02 10:58:03;;;;;;;36.07;19.87;;;;;4.90;100926.00;;;;10429388;28;20203;-75
2021/01/02 11:03:05;;;;;;;36.20;20.30;;;;;4.70;100938.00;;;;10415272;28;20229;-76
2021/01/02 11:08:06;;;;;;;36.37;19.47;;;;;4.60;100927.00;;;;10385974;28;20195;-76
2021/01/02 11:13:07;;;;;;;33.00;18.57;;;;;4.80;100920.00;;;;10421309;28;20212;-76
2021/01/02 11:18:09;;;;;;;37.23;19.50;;;;;4.90;100919.00;;;;10430635;28;20191;-76
2021/01/02 11:23:10;;;;;;;35.03;19.60;;;;;5.00;100915.00;;;;10403493;28;20194;-76
2021/01/02 11:28:13;;;;;;;36.50;20.57;;;;;5.10;100902.00;;;;10410389;28;20198;-76
2021/01/02 11:33:14;;;;;;;35.33;20.17;;;;;5.10;100889.00;;;;10431810;28;20272;-75
2021/01/02 11:38:15;;;;;;;34.40;22.17;;;;;5.20;100897.00;;;;10406917;28;20237;-75
2021/01/02 11:43:17;;;;;;;35.30;20.97;;;;;5.20;100893.00;;;;10415028;28;20253;-76
2021/01/02 11:48:19;;;;;;;35.53;22.77;;;;;5.20;100892.00;;;;10416262;28;20638;-76
2021/01/02 11:53:20;;;;;;;36.03;19.50;;;;;5.20;100882.00;;;;10423230;28;20315;-76
2021/01/02 11:58:21;;;;;;;34.63;20.40;;;;;5.40;100883.00;;;;10441099;28;20288;-76
2021/01/02 12:03:23;;;;;;;36.00;20.50;;;;;5.40;100880.00;;;;10469137;28;20661;-75
2021/01/02 12:08:24;;;;;;;34.77;19.53;;;;;5.50;100864.00;;;;10469987;28;20190;-75
2021/01/02 12:13:25;;;;;;;30.97;19.13;;;;;5.60;100874.00;;;;10451827;28;20256;-76
2021/01/02 12:18:26;;;;;;;34.87;19.03;;;;;5.70;100864.00;;;;10439386;28;20190;-76
2021/01/02 12:23:28;;;;;;;33.93;19.93;;;;;5.80;100862.00;;;;10429768;28;20203;-76
2021/01/02 12:28:33;;;;;;;32.73;20.30;;;;;5.90;100862.00;;;;10379212;28;20258;-76
2021/01/02 12:33:35;;;;;;;33.93;22.33;;;;;6.00;100857.00;;;;10399250;28;20856;-75
2021/01/02 12:38:38;;;;;;;31.67;20.40;;;;;6.00;100851.00;;;;10461133;28;20200;-75
2021/01/02 12:43:41;;;;;;;38.77;20.80;;;;;6.00;100844.00;;;;10472445;28;20217;-75
2021/01/02 12:48:44;;;;;;;33.93;19.37;;;;;6.20;100843.00;;;;10421009;28;20217;-75
2021/01/02 12:53:45;;;;;;;36.23;23.07;;;;;6.30;100833.00;;;;10455083;28;20763;-75
2021/01/02 12:58:46;;;;;;;29.70;20.50;;;;;6.30;100824.00;;;;10454693;28;20202;-75
2021/01/02 13:03:48;;;;;;;37.60;21.57;;;;;6.30;100828.00;;;;10437502;28;20245;-75
2021/01/02 13:08:49;;;;;;;28.87;17.97;;;;;6.30;100828.00;;;;10437301;28;20201;-75
2021/01/02 13:13:51;;;;;;;32.17;19.90;;;;;6.30;100832.00;;;;10454389;28;20210;-75
2021/01/02 13:18:54;;;;;;;33.43;19.67;;;;;6.20;100839.00;;;;10420263;28;20205;-75
2021/01/02 13:23:55;;;;;;;29.57;17.97;;;;;5.90;100833.00;;;;10455029;28;20190;-75
2021/01/02 13:28:57;;;;;;;30.07;18.03;;;;;5.80;100834.00;;;;10436372;28;20220;-75
2021/01/02 13:34:03;;;;;;;34.87;18.73;;;;;5.70;100830.00;;;;10453762;28;20602;-75
2021/01/02 13:39:05;;;;;;;32.40;19.03;;;;;5.70;100826.00;;;;10436313;28;20190;-75
2021/01/02 13:44:09;;;;;;;34.13;20.23;;;;;5.70;100829.00;;;;10403596;28;20299;-75
2021/01/02 13:49:10;;;;;;;34.83;20.53;;;;;5.70;100832.00;;;;10453552;28;20549;-76
2021/01/02 13:54:13;;;;;;;34.27;19.70;;;;;5.80;100827.00;;;;10420611;28;20676;-75
2021/01/02 13:59:20;;;;;;;40.13;19.57;;;;;5.70;100838.00;;;;10420002;28;20244;-75
2021/01/02 14:04:21;;;;;;;33.07;19.47;;;;;5.60;100834.00;;;;10436114;28;20225;-76
2021/01/02 14:09:25;;;;;;;35.03;20.53;;;;;5.40;100844.00;;;;10419209;28;20194;-75
2021/01/02 14:14:28;;;;;;;34.50;18.93;;;;;5.40;100846.00;;;;10420339;28;20190;-75
2021/01/02 14:19:31;;;;;;;32.43;19.23;;;;;5.40;100843.00;;;;10426631;28;20222;-75
2021/01/02 14:24:34;;;;;;;36.00;21.30;;;;;5.30;100833.00;;;;10443680;28;20198;-75
2021/01/02 14:29:35;;;;;;;38.30;20.80;;;;;5.40;100845.00;;;;10443237;28;20244;-75
2021/01/02 14:34:37;;;;;;;39.13;21.87;;;;;5.30;100851.00;;;;10461198;28;20273;-75
2021/01/02 14:39:38;;;;;;;38.97;21.87;;;;;5.20;100854.00;;;;10442609;28;20198;-75
2021/01/02 14:44:40;;;;;;;37.03;20.77;;;;;5.20;100855.00;;;;10426458;28;20276;-76
2021/01/02 14:49:43;;;;;;;37.90;20.73;;;;;5.20;100863.00;;;;10425726;28;20200;-75
2021/01/02 14:54:46;;;;;;;42.60;23.13;;;;;5.10;100861.00;;;;10459859;28;20191;-75
2021/01/02 14:59:49;;;;;;;40.20;22.50;;;;;4.90;100863.00;;;;10443004;28;20281;-75
2021/01/02 15:04:50;;;;;;;39.97;22.80;;;;;4.90;100867.00;;;;10425481;28;20190;-76
2021/01/02 15:09:52;;;;;;;35.63;22.17;;;;;4.90;100862.00;;;;10407319;28;20265;-75
2021/01/02 15:14:53;;;;;;;43.23;23.03;;;;;4.90;100860.00;;;;10420905;28;20237;-75
2021/01/02 15:19:55;;;;;;;38.23;22.47;;;;;4.70;100865.00;;;;10442424;28;20194;-75
2021/01/02 15:24:56;;;;;;;39.13;22.90;;;;;4.70;100874.00;;;;10441207;28;20550;-75
2021/01/02 15:29:58;;;;;;;40.70;21.77;;;;;4.60;100866.00;;;;10458888;28;20681;-75
2021/01/02 15:34:59;;;;;;;44.63;23.63;;;;;4.50;100868.00;;;;10458156;28;20260;-75
2021/01/02 15:40:05;;;;;;;41.53;21.83;;;;;4.40;100869.00;;;;10459185;28;20221;-75
2021/01/02 15:45:07;;;;;;;37.93;21.37;;;;;4.30;100874.00;;;;10419458;28;20307;-75
2021/01/02 15:50:10;;;;;;;45.90;23.73;;;;;4.30;100885.00;;;;10399778;28;20246;-75
2021/01/02 15:55:12;;;;;;;39.43;21.50;;;;;4.20;100877.00;;;;10416597;28;20219;-75
2021/01/02 16:00:13;;;;;;;41.70;22.30;;;;;4.20;100879.00;;;;10398563;28;20198;-75
2021/01/02 16:05:15;;;;;;;36.83;21.83;;;;;4.20;100878.00;;;;10398728;28;20198;-75
2021/01/02 16:10:16;;;;;;;41.57;23.97;;;;;4.10;100879.00;;;;10382757;28;20301;-75
2021/01/02 16:15:17;;;;;;;41.10;23.00;;;;;4.10;100883.00;;;;10404664;28;20202;-75
2021/01/02 16:20:19;;;;;;;42.33;23.67;;;;;4.10;100895.00;;;;10439113;28;20226;-76
2021/01/02 16:25:20;;;;;;;49.40;26.03;;;;;4.10;100886.00;;;;10456406;28;20256;-76
2021/01/02 16:30:22;;;;;;;50.57;24.97;;;;;4.10;100885.00;;;;10438629;28;20218;-75
2021/01/02 16:35:23;;;;;;;47.83;25.50;;;;;4.10;100892.00;;;;10456805;28;20241;-76
2021/01/02 16:40:25;;;;;;;48.10;26.83;;;;;4.10;100896.00;;;;10438523;28;20596;-76
2021/01/02 16:45:26;;;;;;;46.67;26.50;;;;;4.10;100905.00;;;;10410185;28;20214;-76
2021/01/02 16:50:27;;;;;;;48.20;25.17;;;;;4.00;100908.00;;;;10428247;28;20209;-76
2021/01/02 16:55:28;;;;;;;54.37;29.10;;;;;4.00;100916.00;;;;10438797;28;20237;-76
2021/01/02 17:00:30;;;;;;;50.70;28.73;;;;;4.00;100927.00;;;;10421219;28;20280;-75
2021/01/02 17:05:31;;;;;;;52.20;28.40;;;;;4.10;100918.00;;;;10437661;28;20229;-75
2021/01/02 17:10:32;;;;;;;55.03;28.87;;;;;4.10;100920.00;;;;10456107;28;20260;-76
2021/01/02 17:15:34;;;;;;;57.87;31.23;;;;;4.10;100931.00;;;;10437889;28;20236;-75
2021/01/02 17:20:35;;;;;;;52.67;28.10;;;;;4.10;100927.00;;;;10454005;28;20240;-76
2021/01/02 17:25:36;;;;;;;52.27;29.17;;;;;4.10;100932.00;;;;10455193;28;20621;-76
2021/01/02 17:30:38;;;;;;;47.37;27.17;;;;;4.10;100947.00;;;;10437585;28;20214;-76
2021/01/02 17:35:39;;;;;;;58.73;29.77;;;;;4.10;100944.00;;;;10437883;28;20194;-76
2021/01/02 17:40:40;;;;;;;54.13;29.30;;;;;4.00;100944.00;;;;10454677;28;20649;-76
2021/01/02 17:45:42;;;;;;;58.07;29.83;;;;;4.00;100944.00;;;;10437098;28;20218;-76
2021/01/02 17:50:43;;;;;;;53.50;30.20;;;;;4.00;100936.00;;;;10439801;28;20206;-76
2021/01/02 17:55:46;;;;;;;64.60;34.00;;;;;3.90;100933.00;;;;10445151;28;20229;-76
2021/01/02 18:00:48;;;;;;;55.00;31.30;;;;;3.90;100939.00;;;;10461633;28;20198;-76
2021/01/02 18:05:49;;;;;;;59.93;32.00;;;;;3.90;100929.00;;;;10444642;28;20268;-76
2021/01/02 18:10:51;;;;;;;58.77;32.63;;;;;3.90;100937.00;;;;10460902;28;20666;-76
2021/01/02 18:15:52;;;;;;;61.13;32.27;;;;;3.90;100927.00;;;;10462116;28;20225;-76
2021/01/02 18:20:53;;;;;;;60.97;32.00;;;;;3.90;100925.00;;;;10427435;28;20198;-76
2021/01/02 18:25:55;;;;;;;62.87;33.07;;;;;3.90;100926.00;;;;10410724;28;20190;-76
2021/01/02 18:30:56;;;;;;;61.63;32.57;;;;;3.90;100937.00;;;;10461727;28;20261;-76
2021/01/02 18:35:57;;;;;;;58.47;32.60;;;;;3.90;100934.00;;;;10426818;28;20245;-76
2021/01/02 18:40:59;;;;;;;61.53;32.40;;;;;3.80;100931.00;;;;10461700;28;20216;-76
2021/01/02 18:46:01;;;;;;;59.77;32.57;;;;;3.80;100947.00;;;;10443434;28;20245;-76
2021/01/02 18:51:03;;;;;;;60.57;33.93;;;;;3.80;100938.00;;;;10442496;28;20293;-76
2021/01/02 18:56:04;;;;;;;67.77;32.50;;;;;3.80;100942.00;;;;10443215;28;20620;-76
2021/01/02 19:01:08;;;;;;;63.27;34.47;;;;;3.80;100952.00;;;;10459459;28;20213;-76
2021/01/02 19:06:12;;;;;;;113.23;64.97;;;;;3.70;100949.00;;;;10459321;28;20225;-76
2021/01/02 19:11:22;;;;;;;71.33;38.67;;;;;3.70;100951.00;;;;10458335;28;20206;-76
2021/01/02 19:16:28;;;;;;;66.17;33.83;;;;;3.70;100940.00;;;;10458843;28;20194;-76
2021/01/02 19:21:41;;;;;;;63.47;33.50;;;;;3.70;100932.00;;;;10441798;28;20216;-76
2021/01/02 19:26:42;;;;;;;80.17;39.83;;;;;3.70;100932.00;;;;10441107;28;20217;-76
2021/01/02 19:31:44;;;;;;;71.33;38.77;;;;;3.70;100927.00;;;;10459276;28;20202;-76
2021/01/02 19:36:49;;;;;;;71.50;38.30;;;;;3.70;100919.00;;;;10424523;28;20198;-76
2021/01/02 19:41:53;;;;;;;68.20;36.77;;;;;3.60;100922.00;;;;10440523;28;20191;-76
2021/01/02 19:46:56;;;;;;;57.73;31.27;;;;;3.50;100915.00;;;;10457689;28;20234;-76
2021/01/02 19:51:57;;;;;;;60.03;32.90;;;;;3.30;100911.00;;;;10458584;28;20601;-76
2021/01/02 19:57:01;;;;;;;63.90;35.60;;;;;3.20;100919.00;;;;10457471;28;20254;-76
2021/01/02 20:02:08;;;;;;;76.83;38.07;;;;;3.10;100925.00;;;;10440020;28;20202;-76
2021/01/02 20:07:12;;;;;;;65.27;35.30;;;;;3.00;100920.00;;;;10456447;28;20193;-76
2021/01/02 20:12:14;;;;;;;79.47;40.03;;;;;2.80;100923.00;;;;10439264;28;20599;-76
2021/01/02 20:17:20;;;;;;;117.30;56.70;;;;;2.80;100939.00;;;;10456353;28;20206;-76
2021/01/02 20:22:21;;;;;;;287.37;144.03;;;;;2.90;100926.00;;;;10423411;28;20221;-76
2021/01/02 20:27:23;;;;;;;106.33;48.20;;;;;3.00;100926.00;;;;10456143;28;20190;-76
2021/01/02 20:32:25;;;;;;;96.40;42.77;;;;;3.00;100921.00;;;;10439023;28;20206;-76
2021/01/02 20:37:26;;;;;;;83.73;41.67;;;;;3.00;100914.00;;;;10439327;28;20194;-76
2021/01/02 20:42:28;;;;;;;82.67;39.63;;;;;2.90;100912.00;;;;10405523;28;20745;-76
2021/01/02 20:47:29;;;;;;;88.70;41.43;;;;;2.70;100912.00;;;;10414516;28;20202;-76
2021/01/02 20:52:32;;;;;;;79.33;40.93;;;;;2.60;100907.00;;;;10380876;28;20690;-76
2021/01/02 20:57:34;;;;;;;74.50;38.07;;;;;2.50;100903.00;;;;10380881;28;20226;-76
2021/01/02 21:02:36;;;;;;;99.77;50.43;;;;;2.40;100903.00;;;;10396851;28;20658;-76
2021/01/02 21:07:38;;;;;;;82.57;41.87;;;;;2.30;100911.00;;;;10397363;28;20191;-76
2021/01/02 21:12:39;;;;;;;77.77;37.40;;;;;2.00;100907.00;;;;10398158;28;20207;-76
2021/01/02 21:17:41;;;;;;;81.37;42.07;;;;;1.90;100917.00;;;;10455204;28;20194;-75
2021/01/02 21:22:42;;;;;;;85.03;40.53;;;;;1.80;100927.00;;;;10437236;28;20198;-75
2021/01/02 21:27:43;;;;;;;82.43;39.80;;;;;1.70;100924.00;;;;10445654;28;20220;-76
2021/01/02 21:32:45;;;;;;;79.50;39.07;;;;;1.70;100933.00;;;;10462193;28;20214;-76
2021/01/02 21:37:46;;;;;;;84.43;42.10;;;;;1.70;100939.00;;;;10463456;28;20190;-76
2021/01/02 21:42:48;;;;;;;84.83;40.33;;;;;1.70;100939.00;;;;10463593;28;20233;-76
2021/01/02 21:47:51;;;;;;;88.27;39.60;;;;;1.70;100935.00;;;;10445406;28;20190;-76
2021/01/02 21:52:54;;;;;;;89.67;41.63;;;;;1.60;100942.00;;;;10444897;28;20241;-76
2021/01/02 21:57:55;;;;;;;90.97;40.87;;;;;1.70;100943.00;;;;10462051;28;20190;-76
2021/01/02 22:02:57;;;;;;;98.77;43.20;;;;;1.80;100945.00;;;;10444589;28;20190;-76
2021/01/02 22:07:58;;;;;;;103.80;46.03;;;;;2.00;100951.00;;;;10461679;28;20190;-76
2021/01/02 22:13:01;;;;;;;115.83;49.13;;;;;2.10;100959.00;;;;10428333;28;20222;-76
2021/01/02 22:18:03;;;;;;;97.60;46.07;;;;;2.30;100950.00;;;;10445074;28;20293;-76
2021/01/02 22:23:04;;;;;;;99.77;45.40;;;;;2.40;100950.00;;;;10444642;28;20194;-76
2021/01/02 22:28:06;;;;;;;113.10;53.17;;;;;2.50;100952.00;;;;10427557;28;20194;-76
2021/01/02 22:33:07;;;;;;;130.53;56.33;;;;;2.50;100943.00;;;;10444163;28;20543;-76
2021/01/02 22:38:10;;;;;;;116.87;56.07;;;;;2.50;100945.00;;;;10426206;28;20194;-76
2021/01/02 22:43:11;;;;;;;118.30;53.57;;;;;2.60;100954.00;;;;10426431;28;20881;-76
2021/01/02 22:48:12;;;;;;;118.93;54.77;;;;;2.60;100967.00;;;;10459405;28;20190;-76
2021/01/02 22:53:13;;;;;;;108.73;46.63;;;;;2.60;100969.00;;;;10442996;28;20268;-76
2021/01/02 22:58:16;;;;;;;114.73;47.60;;;;;2.70;100962.00;;;;10425822;28;20198;-76
2021/01/02 23:03:20;;;;;;;101.67;46.47;;;;;2.70;100966.00;;;;10442225;28;20538;-76
2021/01/02 23:08:22;;;;;;;94.73;43.13;;;;;2.70;100955.00;;;;10459848;28;20244;-76
2021/01/02 23:13:23;;;;;;;104.23;45.23;;;;;2.80;100966.00;;;;10442508;28;20268;-76
2021/01/02 23:18:25;;;;;;;108.90;45.43;;;;;2.80;100965.00;;;;10441613;28;20190;-76
2021/01/02 23:23:27;;;;;;;105.23;43.20;;;;;2.90;100958.00;;;;10442142;28;20194;-76
2021/01/02 23:28:28;;;;;;;108.20;41.90;;;;;2.90;100954.00;;;;10459003;28;20190;-76
2021/01/02 23:33:29;;;;;;;104.93;41.33;;;;;2.90;100957.00;;;;10458104;28;20608;-76
2021/01/02 23:38:31;;;;;;;107.80;43.23;;;;;3.00;100959.00;;;;10424689;28;20260;-76
2021/01/02 23:43:33;;;;;;;108.83;43.37;;;;;3.00;100959.00;;;;10424505;28;20610;-76
2021/01/02 23:48:34;;;;;;;87.77;40.70;;;;;3.00;100955.00;;;;10440627;28;20681;-76
2021/01/02 23:53:39;;;;;;;93.33;37.97;;;;;3.00;100957.00;;;;10423645;28;20284;-76
2021/01/02 23:58:45;;;;;;;103.53;40.77;;;;;3.00;100953.00;;;;10423738;28;20179;-76
